Date,TemperatureHighF,TemperatureAvgF,TemperatureLowF,DewpointHighF,DewpointAvgF,DewpointLowF,HumidityHigh,HumidityAvg,HumidityLow,PressureMaxIn,PressureMinIn,WindSpeedMaxMPH,WindSpeedAvgMPH,GustSpeedMaxMPH,PrecipitationSumIn
2013-1-1,63,46,31,42,28,19,96,58,26,30.27,30.13,4,1,0,0.00
2013-1-2,72,54,45,28,22,19,51,30,17,30.18,30.06,4,1,0,0.00
2013-1-3,70,57,45,25,20,14,45,25,15,30.20,30.08,5,1,0,0.00
2013-1-4,73,53,34,33,21,14,83,33,12,30.28,30.17,4,0,0,0.00
2013-1-5,62,45,29,43,34,25,88,68,35,30.32,30.20,3,0,0,0.00
2013-1-6,54,45,37,47,42,35,98,89,66,30.22,30.05,6,0,0,0.00
2013-1-7,64,44,33,43,36,31,100,77,39,30.16,30.03,3,0,0,0.00
2013-1-8,81,54,34,51,41,31,91,69,24,30.13,30.04,4,0,0,0.00
2013-1-9,65,51,38,54,45,36,95,82,45,30.14,30.02,4,1,0,0.00
2013-1-10,58,49,36,48,36,23,93,67,31,30.13,29.94,7,1,0,0.00
2013-1-11,56,40,26,33,27,21,91,65,31,30.23,30.08,3,0,0,0.00
2013-1-12,57,40,26,31,26,18,92,63,22,30.20,30.10,5,1,0,0.00
2013-1-13,56,42,30,31,24,14,86,54,25,30.21,30.08,5,1,0,0.00
2013-1-14,57,44,35,15,10,7,35,26,15,30.39,30.20,3,1,0,0.00
2013-1-15,68,50,35,31,19,8,56,30,19,30.47,30.35,4,1,0,0.00
2013-1-16,76,60,50,30,26,20,38,27,16,30.38,30.16,7,2,0,0.00
2013-1-17,77,65,59,21,18,15,23,17,11,30.21,30.09,5,2,0,0.00
2013-1-18,79,65,57,23,18,15,20,16,10,30.18,30.07,4,1,0,0.00
2013-1-19,81,65,58,21,16,14,20,16,9,30.21,30.09,3,1,0,0.00
2013-1-20,81,66,57,18,14,11,18,14,8,30.16,30.03,3,0,0,0.00
2013-1-21,82,66,50,20,13,10,29,13,7,30.12,30.01,4,1,0,0.00
2013-1-22,86,61,45,32,21,11,59,25,7,30.11,30.01,4,0,0,0.00
2013-1-23,79,59,48,49,38,27,87,48,21,30.13,30.01,2,0,0,0.00
2013-1-24,61,56,51,58,54,49,98,95,86,30.19,30.10,1,0,0,0.00
2013-1-25,61,58,55,56,54,49,97,88,68,30.15,29.98,2,0,0,0.00
2013-1-26,68,58,53,60,55,50,98,91,71,30.01,29.89,3,0,0,0.00
2013-1-27,62,53,38,53,46,32,94,78,48,30.05,29.94,5,0,0,0.00
2013-1-28,58,44,33,40,34,31,94,72,42,30.22,30.05,4,0,0,0.00
2013-1-29,58,44,32,43,36,30,95,78,46,30.24,30.16,5,1,0,0.00
2013-1-30,68,48,35,48,40,33,96,78,42,30.35,30.24,5,1,0,0.00
2013-1-31,84,58,36,49,43,34,95,64,22,30.24,30.12,5,0,0,0.00
2013-2-1,79,53,38,50,44,36,95,74,24,30.19,30.13,7,0,0,0.00
2013-2-2,78,59,46,54,47,41,91,67,28,30.21,30.13,3,0,0,0.00
2013-2-3,73,56,42,53,46,40,93,73,39,30.16,30.02,4,0,0,0.00
2013-2-4,68,50,38,54,45,37,97,84,58,30.11,30.00,4,0,0,0.00
2013-2-5,58,50,41,51,47,39,100,91,75,30.11,30.01,2,0,0,0.00
2013-2-6,64,51,39,50,46,37,96,84,58,30.13,30.02,4,0,0,0.00
2013-2-7,59,46,34,50,42,33,97,86,67,30.16,29.99,4,0,0,0.00
2013-2-8,52,43,34,44,38,32,96,84,62,29.99,29.89,8,1,0,0.00
2013-2-9,59,42,30,45,35,29,97,79,43,30.12,29.96,4,0,0,0.00
2013-2-10,56,42,30,44,37,28,96,82,57,30.12,30.03,4,1,0,0.00
2013-2-11,67,45,30,38,32,23,96,68,19,30.27,30.10,4,0,0,0.00
2013-2-12,62,44,28,37,31,24,93,67,26,30.36,30.26,5,1,0,0.00
2013-2-13,73,46,30,47,36,27,95,71,21,30.30,30.16,5,1,0,0.00
2013-2-14,82,52,32,44,36,30,93,65,17,30.22,30.08,4,0,0,0.00
2013-2-15,82,64,41,37,29,22,80,32,13,30.22,30.13,4,1,0,0.00
2013-2-16,83,62,39,34,26,18,70,30,9,30.18,29.99,6,1,0,0.00
2013-2-17,67,50,33,50,39,27,91,70,33,30.04,29.93,6,1,0,0.00
2013-2-18,63,52,44,49,46,42,94,81,55,30.07,29.95,6,1,0,0.00
2013-2-19,55,48,42,46,43,38,94,84,64,29.99,29.73,5,1,0,0.00
2013-2-20,63,44,31,44,35,29,96,73,42,30.02,29.73,3,0,0,0.00
2013-2-21,60,43,29,44,35,26,95,74,38,30.13,30.00,5,1,0,0.00
2013-2-22,65,46,30,42,34,28,93,68,28,30.21,30.13,5,1,0,0.00
2013-2-23,63,48,32,50,38,29,92,73,43,30.18,29.93,4,1,0,0.00
2013-2-24,70,54,36,33,22,14,75,33,12,30.22,30.03,4,1,0,0.00
2013-2-25,66,47,30,38,28,16,83,52,15,30.24,30.09,5,1,0,0.00
2013-2-26,77,49,29,43,32,22,91,61,13,30.15,30.00,4,0,0,0.00
2013-2-27,82,60,43,30,22,15,57,26,9,30.30,30.15,4,1,0,0.00
2013-2-28,84,59,37,39,28,19,68,36,9,30.34,30.24,4,1,0,0.00
2013-3-1,90,66,42,34,28,23,67,29,9,30.32,30.16,5,1,0,0.00
2013-3-2,84,61,43,42,36,31,74,45,15,30.22,30.09,4,0,0,0.00
2013-3-3,69,56,45,51,46,41,90,70,44,30.13,29.98,4,0,0,0.00
2013-3-4,66,51,39,52,46,37,96,82,59,30.11,30.01,5,1,0,0.00
2013-3-5,64,51,40,52,47,38,95,85,62,30.14,30.04,8,1,0,0.00
2013-3-6,57,51,41,49,46,39,93,84,61,30.16,30.02,3,0,0,0.00
2013-3-7,60,53,48,51,47,41,96,82,49,30.02,29.84,5,1,0,0.00
2013-3-8,56,49,43,48,45,42,96,85,65,30.04,29.80,4,1,0,0.00
2013-3-9,66,50,37,48,42,35,98,78,48,30.25,30.03,5,1,0,0.00
2013-3-10,80,54,36,44,36,23,93,60,13,30.29,30.17,6,1,0,0.00
2013-3-11,72,55,35,46,40,33,93,62,31,30.21,30.06,6,1,0,0.00
2013-3-12,74,56,38,53,44,36,93,69,40,30.10,30.02,5,1,0,0.00
2013-3-13,83,60,41,56,46,38,93,64,27,30.11,30.04,6,1,0,0.00
2013-3-14,76,59,41,54,47,38,91,69,41,30.10,30.02,5,1,0,0.00
2013-3-15,70,56,46,57,50,44,95,81,60,30.04,29.95,6,1,0,0.00
2013-3-16,67,54,47,55,50,44,96,87,62,30.00,29.89,5,1,0,0.00
2013-3-17,70,52,40,55,47,38,96,84,53,30.02,29.93,6,1,0,0.00
2013-3-18,63,52,43,53,48,41,98,85,69,30.09,29.99,5,1,0,0.00
2013-3-19,67,54,42,55,48,40,95,83,63,30.13,30.04,7,1,0,0.00
2013-3-20,69,57,48,55,50,46,94,79,55,30.10,29.96,6,1,0,0.00
2013-3-21,71,56,43,54,48,41,94,78,49,29.96,29.81,6,1,0,0.00
2013-3-22,73,55,36,51,43,34,95,68,37,29.91,29.81,6,1,0,0.00
2013-3-23,69,54,34,52,41,29,87,66,25,30.02,29.91,7,2,0,0.00
2013-3-24,73,54,38,54,44,36,93,74,36,30.04,29.91,6,1,0,0.00
2013-3-25,70,54,39,56,46,36,92,75,50,29.98,29.91,6,1,0,0.00
2013-3-26,67,53,40,54,47,38,95,80,59,29.97,29.92,7,1,0,0.00
2013-3-27,69,55,43,53,48,41,94,79,55,30.06,29.93,7,1,0,0.00
2013-3-28,69,55,43,55,49,41,94,82,59,30.09,30.03,6,1,0,0.00
2013-3-29,71,56,43,57,50,41,95,82,60,30.12,30.04,6,1,0,0.00
2013-3-30,70,58,52,55,51,-100,93,80,53,30.14,30.06,6,1,0,0.00
2013-3-31,67,58,53,59,53,50,92,85,64,30.13,30.06,5,1,0,0.00
2013-4-1,65,57,51,54,51,48,93,83,66,30.18,30.08,7,2,0,0.00
2013-4-2,70,56,44,54,50,42,95,79,56,30.11,30.00,6,1,0,0.00
2013-4-3,74,58,45,57,51,43,95,80,52,30.09,29.99,7,2,0,0.00
2013-4-4,69,59,54,57,54,51,93,84,61,30.12,30.02,7,1,0,0.00
2013-4-5,70,59,51,57,53,47,91,82,63,30.11,29.99,6,1,0,0.00
2013-4-6,70,57,45,57,50,43,95,80,57,30.10,29.95,6,1,0,0.00
2013-4-7,76,60,45,56,50,43,95,73,38,29.97,29.79,7,1,0,0.00
2013-4-8,74,58,48,49,42,32,93,62,22,29.85,29.66,9,1,0,0.00
2013-4-9,72,57,39,46,37,25,86,54,18,30.02,29.85,7,2,0,0.00
2013-4-10,83,64,42,43,33,20,75,39,10,30.12,29.98,8,1,0,0.00
2013-4-11,72,57,42,51,44,36,82,64,39,29.98,29.78,7,1,0,0.00
2013-4-12,69,56,46,55,49,43,93,80,60,29.88,29.80,5,1,0,0.00
2013-4-13,64,55,47,55,51,44,94,86,73,29.92,29.85,6,1,0,0.00
2013-4-14,61,57,54,53,52,50,93,84,71,29.89,29.82,6,1,0,0.00
2013-4-15,64,56,50,52,49,43,89,77,63,29.90,29.83,7,1,0,0.00
2013-4-16,65,53,40,46,41,36,90,66,40,30.02,29.88,6,1,0,0.00
2013-4-17,69,56,38,43,34,23,89,52,19,30.16,30.02,8,2,0,0.00
2013-4-18,83,63,41,37,25,15,75,28,8,30.24,30.13,8,2,0,0.00
2013-4-19,83,63,40,45,35,17,68,41,9,30.18,29.98,6,1,0,0.00
2013-4-20,91,64,43,55,43,35,76,50,14,30.00,29.89,7,1,0,0.00
2013-4-21,80,64,46,55,48,40,92,61,30,30.01,29.93,7,2,0,0.00
2013-4-22,70,60,53,55,53,50,93,80,58,30.01,29.89,6,1,0,0.00
2013-4-23,71,61,51,54,52,47,85,73,56,29.97,29.88,6,2,0,0.00
2013-4-24,60,56,51,54,53,47,92,87,79,30.00,29.90,4,0,0,0.00
2013-4-25,69,60,50,52,49,44,90,70,45,30.14,29.97,6,1,0,0.00
2013-4-26,73,58,43,54,48,40,92,71,49,30.16,30.11,6,1,0,0.00
2013-4-27,75,60,45,57,51,42,94,73,50,30.15,30.00,6,1,0,0.00
2013-4-28,73,59,51,58,53,48,96,81,58,30.01,29.85,6,1,0,0.00
2013-4-29,69,60,54,58,55,52,94,83,66,29.91,29.79,7,1,0,0.00
2013-4-30,67,61,57,56,54,53,91,79,65,29.89,29.82,7,2,0,0.00
2013-5-1,73,64,54,57,54,49,85,72,55,30.10,29.89,6,2,0,0.00
2013-5-2,95,71,44,50,26,-9,91,39,2,30.16,30.01,7,2,0,0.00
2013-5-3,95,72,49,45,30,2,62,28,3,30.04,29.77,6,1,0,0.00
2013-5-4,77,62,46,56,49,37,84,64,40,29.83,29.72,9,2,0,0.00
2013-5-5,66,61,57,54,51,49,90,70,55,29.93,29.82,2,0,0,0.00
2013-5-6,66,59,55,57,54,49,96,82,58,30.02,29.88,5,1,0,0.00
2013-5-7,70,61,55,55,52,48,92,73,49,30.06,29.99,7,2,0,0.00
2013-5-8,69,61,53,55,51,47,92,73,51,30.10,30.06,7,2,0,0.00
2013-5-9,70,59,46,55,51,43,93,75,54,30.10,30.02,6,1,0,0.00
2013-5-10,78,62,49,60,52,-100,94,74,52,30.10,30.00,6,2,0,0.00
2013-5-11,81,65,50,62,55,-100,93,73,52,30.07,30.00,7,1,0,0.00
2013-5-12,89,72,52,64,57,49,92,63,38,30.05,29.91,7,1,0,0.00
2013-5-13,90,72,57,63,56,51,85,61,34,29.97,29.89,5,1,0,0.00
2013-5-14,71,60,52,57,53,47,94,77,55,30.00,29.90,7,2,0,0.00
2013-5-15,71,59,47,57,51,44,93,76,59,30.04,29.95,6,2,0,0.00
2013-5-16,69,55,47,57,36,-100,92,79,64,29.99,29.90,6,1,0,0.00
2013-5-17,71,60,51,57,48,-100,91,75,56,29.99,29.91,7,1,0,0.00
2013-5-18,73,61,47,57,50,44,91,70,48,30.04,29.97,7,2,0,0.00
2013-5-19,80,63,45,57,52,43,92,69,45,29.99,29.86,7,1,0,0.00
2013-5-20,79,65,48,60,54,45,93,69,49,29.95,29.88,6,1,0,0.00
2013-5-21,76,63,51,61,55,48,91,75,58,29.94,29.83,6,1,0,0.00
2013-5-22,72,61,51,57,52,45,89,72,52,29.85,29.77,7,2,0,0.00
2013-5-23,70,60,48,54,49,44,87,70,52,29.94,29.83,7,2,0,0.00
2013-5-24,70,58,45,55,49,41,90,71,55,29.98,29.91,7,2,0,0.00
2013-5-25,70,59,45,56,49,41,92,72,56,30.01,29.96,9,2,0,0.00
2013-5-26,70,60,45,56,50,42,91,73,57,30.04,29.99,8,2,0,0.00
2013-5-27,75,61,47,57,52,44,92,72,51,30.01,29.84,6,1,0,0.00
2013-5-28,78,65,51,59,54,48,92,71,48,29.88,29.74,6,1,0,0.00
2013-5-29,82,66,51,59,54,48,92,68,39,29.81,29.71,6,1,0,0.00
2013-5-30,77,65,50,60,55,47,92,71,53,29.87,29.77,7,2,0,0.00
2013-5-31,77,65,54,62,56,50,94,75,57,29.91,29.81,7,1,0,0.00
2013-6-1,83,67,53,63,58,50,93,74,49,29.85,29.73,6,1,0,0.00
2013-6-2,73,63,55,62,58,52,93,84,68,29.82,29.77,7,2,0,0.00
2013-6-3,76,65,59,60,57,55,92,77,53,29.90,29.79,7,1,0,0.00
2013-6-4,73,64,54,59,56,49,88,77,62,29.98,29.88,6,2,0,0.00
2013-6-5,72,60,48,58,53,45,91,79,62,30.01,29.93,6,2,0,0.00
2013-6-6,72,61,50,59,54,47,91,80,63,29.96,29.88,6,2,0,0.00
2013-6-7,74,63,58,60,57,54,88,80,61,29.91,29.79,7,1,0,0.00
2013-6-8,71,64,60,61,58,56,89,80,67,29.91,29.78,8,2,0,0.00
2013-6-9,73,64,59,61,58,54,90,80,65,29.92,29.88,8,2,0,0.00
2013-6-10,74,66,60,58,56,52,86,71,51,29.96,29.89,7,2,0,0.00
2013-6-11,80,67,54,62,57,51,93,72,50,29.94,29.89,5,1,0,0.00
2013-6-12,73,64,59,61,58,55,92,82,64,30.02,29.92,6,2,0,0.00
2013-6-13,74,65,56,60,58,52,87,76,62,30.02,29.90,6,1,0,0.00
2013-6-14,74,63,49,61,56,46,94,78,61,29.92,29.84,7,2,0,0.00
2013-6-15,73,65,60,59,57,55,89,76,60,29.98,29.88,7,2,0,0.00
2013-6-16,76,65,56,60,57,51,87,76,57,30.04,29.95,6,1,0,0.00
2013-6-17,78,63,50,61,55,47,94,77,53,29.99,29.88,6,2,0,0.00
2013-6-18,76,64,51,59,54,48,93,73,52,29.93,29.83,7,2,0,0.00
2013-6-19,84,66,49,57,52,46,93,64,30,29.87,29.77,6,2,0,0.00
2013-6-20,79,60,47,55,50,44,91,71,42,29.85,29.81,7,2,0,0.00
2013-6-21,79,77,75,57,56,55,52,48,44,29.87,29.84,6,4,0,0.00
2013-6-22,77,70,51,60,57,48,88,65,53,29.91,29.83,6,3,0,0.00
2013-6-23,70,62,51,59,55,48,91,77,65,29.88,29.80,5,1,0,0.00
2013-6-24,71,63,53,60,56,50,91,79,64,29.94,29.82,6,1,0,0.00
2013-6-25,75,67,59,62,59,55,89,76,61,29.99,29.90,6,1,0,0.00
2013-6-26,83,71,57,65,60,53,91,70,52,29.97,29.91,6,1,0,0.00
2013-6-27,87,72,60,67,61,55,88,70,49,30.01,29.94,8,2,0,0.00
2013-6-28,88,73,60,66,62,57,92,69,46,29.98,29.87,5,1,0,0.00
2013-6-29,91,77,60,66,62,56,89,63,41,29.87,29.73,6,1,0,0.00
2013-6-30,93,75,61,67,62,56,87,67,38,29.81,29.70,7,2,0,0.00
2013-7-1,86,72,61,68,64,58,93,76,53,29.87,29.79,6,1,0,0.00
2013-7-2,80,70,61,66,62,58,92,77,58,29.98,29.86,8,2,0,0.00
2013-7-3,81,68,62,65,61,58,93,80,57,29.92,29.80,6,1,0,0.00
2013-7-4,78,69,62,65,61,58,92,78,60,29.83,29.74,6,2,0,0.00
2013-7-5,78,68,63,64,61,59,90,80,60,29.84,29.76,6,1,0,0.00
2013-7-6,78,68,60,64,61,56,89,81,62,29.83,29.75,6,1,0,0.00
2013-7-7,80,68,59,64,60,54,92,78,55,29.86,29.77,5,1,0,0.00
2013-7-8,84,66,56,63,56,-100,94,76,45,29.92,29.85,6,1,0,0.00
2013-7-9,86,70,55,65,58,52,92,70,45,29.97,29.91,7,1,0,0.00
2013-7-10,83,68,59,66,58,-100,89,74,52,29.97,29.89,5,1,0,0.00
2013-7-11,80,70,64,66,62,59,86,78,62,29.96,29.88,4,1,0,0.00
2013-7-12,79,68,59,66,61,55,93,80,59,29.92,29.87,7,2,0,0.00
2013-7-13,80,68,58,63,59,54,94,75,52,29.96,29.86,6,2,0,0.00
2013-7-14,82,69,54,64,58,51,92,71,46,29.93,29.81,7,1,0,0.00
2013-7-15,81,67,55,61,56,50,90,69,47,29.87,29.82,6,1,0,0.00
2013-7-16,81,65,51,59,54,47,94,71,43,29.97,29.87,7,2,0,0.00
2013-7-17,77,59,49,58,51,45,88,76,52,30.00,29.96,2,0,0,0.00
2013-7-18,80,65,52,60,55,48,92,72,46,29.98,29.87,6,1,0,0.00
2013-7-19,80,65,53,60,55,49,90,72,51,29.91,29.82,5,1,0,0.00
2013-7-20,79,65,54,64,56,-100,92,77,60,29.88,29.77,6,2,0,0.00
2013-7-21,73,66,62,64,61,58,89,83,71,29.92,29.80,5,1,0,0.00
2013-7-22,77,68,62,65,61,58,93,80,61,29.98,29.91,6,1,0,0.00
2013-7-23,78,67,61,63,60,57,92,78,56,30.03,29.94,7,2,0,0.00
2013-7-24,76,66,58,62,58,55,93,79,61,29.98,29.90,6,1,0,0.00
2013-7-25,77,65,57,63,58,54,92,80,60,30.01,29.93,6,1,0,0.00
2013-7-26,79,65,59,62,58,55,91,79,56,30.10,29.99,6,1,0,0.00
2013-7-27,78,66,58,62,58,55,93,77,56,30.02,29.88,6,2,0,0.00
2013-7-28,73,64,58,62,58,55,93,81,66,29.93,29.88,7,2,0,0.00
2013-7-29,74,65,57,61,57,52,90,77,60,30.03,29.91,6,2,0,0.00
2013-7-30,73,63,54,60,56,50,92,78,60,30.12,30.03,6,2,0,0.00
2013-7-31,73,62,53,59,55,50,91,80,62,30.11,30.01,7,2,0,0.00
2013-8-1,74,63,57,60,56,52,90,78,59,30.03,29.90,6,1,0,0.00
2013-8-2,76,62,50,61,55,47,92,79,60,29.97,29.91,6,2,0,0.00
2013-8-3,77,63,53,61,56,49,93,79,58,30.01,29.93,7,2,0,0.00
2013-8-4,76,63,53,61,56,49,94,80,58,30.03,29.94,7,1,0,0.00
2013-8-5,77,62,52,61,55,49,95,79,52,30.02,29.93,6,1,0,0.00
2013-8-6,76,62,52,60,56,48,93,80,57,30.05,29.97,6,1,0,0.00
2013-8-7,75,63,55,60,56,52,93,79,56,30.08,29.98,6,1,0,0.00
2013-8-8,76,63,55,61,56,51,95,79,56,30.00,29.91,7,1,0,0.00
2013-8-9,74,63,51,60,56,48,94,79,60,29.97,29.91,7,2,0,0.00
2013-8-10,75,62,49,60,54,46,93,79,60,30.03,29.96,6,1,0,0.00
2013-8-11,77,64,54,61,57,51,94,78,57,30.01,29.91,5,1,0,0.00
2013-8-12,77,64,56,63,57,52,94,81,60,29.98,29.90,6,1,0,0.00
2013-8-13,79,65,55,63,56,-100,94,78,57,29.98,29.88,6,2,0,0.00
2013-8-14,83,65,56,65,54,-100,95,79,52,29.93,29.83,5,1,0,0.00
2013-8-15,82,60,57,65,42,-100,95,77,57,29.95,29.88,5,1,0,0.00
2013-8-16,82,67,59,65,56,-100,95,74,50,29.96,29.90,7,1,0,0.00
2013-8-17,81,66,56,63,56,-100,94,74,49,29.95,29.82,6,1,0,0.00
2013-8-18,80,66,54,63,58,52,94,77,55,29.90,29.81,5,1,0,0.00
2013-8-19,78,62,58,65,48,-100,93,81,63,29.95,29.86,6,2,0,0.00
2013-8-20,81,66,58,63,57,-100,95,78,53,29.95,29.86,6,1,0,0.00
2013-8-21,80,65,52,62,56,49,93,74,51,29.93,29.85,5,1,0,0.00
2013-8-22,86,69,53,61,55,50,92,65,36,29.93,29.83,6,2,0,0.00
2013-8-23,83,69,50,60,55,47,91,64,39,29.88,29.75,5,2,0,0.00
2013-8-24,82,64,49,61,52,-100,93,71,44,29.87,29.77,6,1,0,0.00
2013-8-25,85,67,49,62,54,46,92,68,39,29.92,29.83,6,1,0,0.00
2013-8-26,87,74,52,59,55,48,88,55,30,29.93,29.83,4,1,0,0.00
2013-8-27,83,69,64,62,58,54,81,69,48,29.85,29.79,5,1,0,0.00
2013-8-28,88,79,64,64,57,51,70,49,28,29.88,29.81,6,2,0,0.00
2013-8-29,93,74,58,63,56,50,80,57,31,29.92,29.86,6,1,0,0.00
2013-8-30,96,80,64,68,61,54,71,55,36,29.95,29.89,9,2,0,0.00
2013-8-31,88,77,69,71,63,-100,78,64,52,29.96,29.87,7,2,0,0.00
2013-9-1,86,76,68,70,66,62,84,71,59,29.92,29.84,7,2,0,0.00
2013-9-2,86,73,63,69,65,60,91,76,55,29.91,29.81,6,2,0,0.00
2013-9-3,89,76,63,68,64,59,90,67,47,29.89,29.82,6,2,0,0.00
2013-9-4,90,74,61,66,61,57,89,66,42,29.91,29.84,6,1,0,0.00
2013-9-5,93,74,59,65,60,55,90,64,37,29.88,29.82,5,1,0,0.00
2013-9-6,93,76,59,62,58,53,81,58,33,29.87,29.78,5,1,0,0.00
2013-9-7,91,70,58,63,54,-100,80,61,34,29.87,29.80,6,1,0,0.00
2013-9-8,82,67,59,63,58,55,89,74,44,29.85,29.75,5,1,0,0.00
2013-9-9,75,64,56,62,57,53,93,81,62,29.82,29.75,3,1,0,0.00
2013-9-10,74,64,59,61,58,54,92,80,61,29.94,29.82,6,1,0,0.00
2013-9-11,75,65,56,61,57,52,92,79,61,30.01,29.93,5,1,0,0.00
2013-9-12,83,67,52,62,56,49,93,71,46,29.95,29.83,6,1,0,0.00
2013-9-13,83,68,52,62,56,49,91,69,44,29.84,29.67,5,1,0,0.00
2013-9-14,85,69,55,63,55,-100,89,66,42,29.72,29.65,6,1,0,0.00
2013-9-15,84,69,55,64,57,52,89,68,48,29.76,29.67,5,1,0,0.00
2013-9-16,86,68,53,63,57,50,92,69,43,29.82,29.75,5,1,0,0.00
2013-9-17,76,62,49,61,54,46,93,77,57,29.83,29.73,7,1,0,0.00
2013-9-18,62,55,52,56,51,49,90,87,82,29.79,29.76,0,0,0,0.00
2013-9-19,76,63,51,62,57,48,93,80,61,29.83,29.76,6,1,0,0.00
2013-9-20,73,65,62,63,59,58,88,83,70,29.89,29.81,5,1,0,0.00
2013-9-21,73,64,57,60,56,-100,92,81,61,29.92,29.80,6,2,0,0.00
2013-9-22,78,63,48,57,51,45,94,69,36,29.86,29.77,6,1,0,0.00
2013-9-23,94,77,49,53,48,40,77,40,16,29.88,29.82,6,2,0,0.00
2013-9-24,85,71,53,57,50,43,76,51,24,29.93,29.83,5,2,0,0.00
2013-9-25,73,61,49,59,52,45,89,73,51,29.84,29.70,6,1,0,0.00
2013-9-26,74,60,50,53,49,44,88,68,36,29.90,29.72,7,1,0,0.00
2013-9-27,88,65,43,45,37,30,87,47,13,29.99,29.90,4,1,0,0.00
2013-9-28,89,76,57,47,33,-100,56,24,12,30.03,29.97,7,2,0,0.00
2013-9-29,85,71,46,54,46,36,77,45,21,30.06,29.97,4,1,0,0.00
2013-9-30,82,64,46,57,48,39,79,58,28,29.99,29.84,6,1,0,0.00
2013-10-1,74,64,56,58,54,51,83,72,57,29.91,29.87,1,0,0,0.00
2013-10-2,75,62,51,60,55,48,91,78,55,29.98,29.88,5,1,0,0.00
2013-10-3,71,63,53,59,56,49,91,78,63,29.93,29.82,6,1,0,0.00
2013-10-4,86,70,48,49,28,17,92,30,8,30.06,29.88,6,2,0,0.00
2013-10-5,91,77,65,29,24,18,21,14,7,30.14,30.04,7,2,0,0.00
2013-10-6,98,78,56,43,30,14,56,23,5,30.09,29.97,5,1,0,0.00
2013-10-7,81,64,49,54,44,34,84,52,21,29.98,29.90,5,1,0,0.00
2013-10-8,71,58,43,57,50,40,90,77,58,29.93,29.82,8,1,0,0.00
2013-10-9,61,57,46,54,50,41,87,77,59,29.83,29.70,6,1,0,0.00
2013-10-10,67,53,40,51,45,37,93,76,53,30.04,29.80,6,1,0,0.00
2013-10-11,71,54,42,55,47,39,92,77,51,30.06,29.96,5,1,0,0.00
2013-10-12,73,55,42,56,46,-100,92,77,49,29.99,29.89,6,1,0,0.00
2013-10-13,68,56,43,54,49,41,94,80,59,30.03,29.94,6,1,0,0.00
2013-10-14,89,61,43,56,43,36,93,62,16,30.03,29.91,5,1,0,0.00
2013-10-15,90,70,53,42,36,31,62,31,12,29.97,29.87,5,0,0,0.00
2013-10-16,91,72,51,36,30,22,54,23,8,30.09,29.97,4,1,0,0.00
2013-10-17,80,68,44,51,42,32,77,44,19,30.04,29.93,4,1,0,0.00
2013-10-18,78,67,46,58,49,40,79,54,33,30.01,29.94,5,1,0,0.00
2013-10-19,80,67,47,55,46,-100,83,53,29,30.03,29.96,4,1,0,0.00
2013-10-20,73,62,44,59,53,41,90,74,55,29.99,29.90,5,1,0,0.00
2013-10-21,72,57,48,59,52,46,93,83,62,29.99,29.91,5,1,0,0.00
2013-10-22,72,56,46,57,51,43,93,84,59,30.01,29.91,5,1,0,0.00
2013-10-23,68,58,53,56,53,50,94,85,65,29.99,29.90,5,1,0,0.00
2013-10-24,69,61,54,56,54,50,86,77,62,30.05,29.96,5,1,0,0.00
2013-10-25,73,60,50,58,54,47,90,80,58,30.14,30.02,3,0,0,0.00
2013-10-26,77,57,43,60,49,-100,95,78,52,30.11,29.98,3,0,0,0.00
2013-10-27,69,56,42,58,50,40,93,82,63,29.99,29.82,4,1,0,0.00
2013-10-28,64,56,53,54,48,-100,89,76,53,29.94,29.80,7,2,0,0.00
2013-10-29,64,54,43,50,47,40,92,78,56,30.02,29.93,5,1,0,0.00
2013-11-12,77,60,47,54,48,43,88,68,36,30.18,30.08,2,0,0,0.00
2013-11-13,96,81,58,42,35,29,42,20,10,30.04,29.91,3,0,0,0.00
2013-11-14,93,71,49,52,37,29,79,33,11,29.93,29.76,4,0,0,0.00
2013-11-15,69,56,45,55,48,40,87,76,55,29.77,29.67,5,0,0,0.00
2013-11-16,65,56,47,54,49,-100,90,80,64,29.93,29.75,6,1,0,0.00
2013-11-17,67,55,45,53,49,42,92,80,59,30.10,29.94,3,0,0,0.00
2013-11-18,66,52,41,54,47,39,94,84,65,30.17,30.06,3,0,0,0.00
2013-11-19,65,55,45,53,50,42,93,81,65,30.10,29.96,5,0,0,0.00
2013-11-20,67,56,48,56,51,45,94,83,61,29.98,29.88,3,0,0,0.00
2013-11-21,61,57,53,58,54,44,96,89,68,29.90,29.82,3,0,0,0.00
2013-12-14,74,61,36,34,24,-100,90,27,16,30.32,30.22,3,1,0,0.00
2013-12-15,80,67,59,25,23,21,24,19,12,30.29,30.11,3,1,0,0.00
2013-12-16,86,71,64,27,25,23,24,18,11,30.14,30.04,4,1,0,0.00
2013-12-17,89,70,59,46,32,25,59,27,11,30.11,30.00,2,0,0,0.00
2013-12-18,65,58,50,54,48,40,92,71,49,29.99,29.86,5,0,0,0.00
2013-12-19,57,51,39,50,44,35,90,78,57,29.85,29.70,5,1,0,0.00
2013-12-20,71,50,35,42,36,30,92,64,23,29.91,29.82,2,0,0,0.00